Time;durP1;ratioP1;P1;durP2;ratioP2;P2;SDS_P1;SDS_P2;PMS_P1;PMS_P2;Temp;Humidity;BMP_temperature;BMP_pressure;BME280_temperature;BME280_humidity;BME280_pressure;Samples;Min_cycle;Max_cycle;Signal;HPM_P1;HPM_P2
2021/06/03 00:01:00;;;;;;;0.00;0.00;;;;;;;17.99;60.57;102023.53;10533709;28;20475;-63
2021/06/03 00:06:04;;;;;;;0.10;0.10;;;;;;;17.90;61.32;102020.03;10523498;28;20032;-62
2021/06/03 00:11:10;;;;;;;0.05;0.05;;;;;;;17.77;61.46;102025.13;10492160;28;20429;-63
2021/06/03 00:16:14;;;;;;;0.10;0.10;;;;;;;17.63;62.02;102026.75;10474078;28;20099;-63
2021/06/03 00:21:15;;;;;;;0.10;0.10;;;;;;;17.55;62.43;102024.09;10503921;28;20093;-63
2021/06/03 00:26:15;;;;;;;0.10;0.10;;;;;;;17.46;63.09;102015.22;10501010;28;20024;-63
2021/06/03 00:31:16;;;;;;;0.10;0.10;;;;;;;17.33;63.37;102023.00;10490771;28;20017;-62
2021/06/03 00:36:16;;;;;;;0.10;0.10;;;;;;;17.20;63.45;102016.31;10494259;28;20029;-63
2021/06/03 00:41:17;;;;;;;0.10;0.10;;;;;;;17.08;64.38;102014.19;10490501;28;20316;-63
2021/06/03 00:46:18;;;;;;;0.10;0.10;;;;;;;16.95;64.83;102017.41;10490575;28;20204;-62
2021/06/03 00:51:18;;;;;;;0.10;0.10;;;;;;;16.80;65.47;102021.81;10502720;28;20027;-62
2021/06/03 00:56:18;;;;;;;0.10;0.10;;;;;;;16.67;65.80;102014.25;10531863;28;20020;-63
2021/06/03 01:01:19;;;;;;;0.10;0.10;;;;;;;16.58;65.87;102010.72;10513361;28;20024;-62
2021/06/03 01:06:19;;;;;;;0.13;0.13;;;;;;;16.42;66.32;102016.94;10531694;28;20605;-62
2021/06/03 01:11:29;;;;;;;0.10;0.10;;;;;;;16.30;66.94;102020.97;10512627;28;20021;-63
2021/06/03 01:16:32;;;;;;;0.10;0.10;;;;;;;16.20;67.71;102018.47;10489684;28;20016;-62
2021/06/03 01:21:50;;;;;;;0.10;0.10;;;;;;;16.04;67.95;102016.59;10503470;28;20020;-62
2021/06/03 01:26:57;;;;;;;0.10;0.10;;;;;;;15.93;68.44;102027.66;10488803;28;20040;-62
2021/06/03 01:31:58;;;;;;;0.10;0.10;;;;;;;15.82;69.06;102022.59;10488202;28;20064;-62
2021/06/03 01:36:59;;;;;;;0.10;0.10;;;;;;;15.72;69.16;102025.44;10496959;28;20453;-62
2021/06/03 01:41:59;;;;;;;0.10;0.10;;;;;;;15.57;69.87;102018.97;10526721;28;20081;-62
2021/06/03 01:47:02;;;;;;;0.10;0.10;;;;;;;15.40;70.48;102015.41;10513499;28;20029;-62
2021/06/03 01:52:05;;;;;;;0.10;0.10;;;;;;;15.31;71.06;102017.19;10511408;28;20028;-61
2021/06/03 01:57:07;;;;;;;0.10;0.10;;;;;;;15.25;71.25;102019.69;10513230;28;20024;-62
2021/06/03 02:02:07;;;;;;;0.10;0.10;;;;;;;15.19;71.03;102015.81;10494853;28;20028;-62
2021/06/03 02:07:07;;;;;;;0.10;0.10;;;;;;;15.27;70.71;102029.28;10489202;28;20028;-62
2021/06/03 02:12:11;;;;;;;0.10;0.10;;;;;;;15.36;70.66;102019.41;10520065;28;20028;-61
2021/06/03 02:17:20;;;;;;;0.10;0.10;;;;;;;15.44;70.14;102027.47;10487859;28;20094;-62
2021/06/03 02:22:23;;;;;;;0.15;0.15;;;;;;;15.60;69.23;102018.66;10508559;28;20028;-62
2021/06/03 02:27:24;;;;;;;0.10;0.10;;;;;;;15.65;69.29;102015.47;10510727;28;20073;-62
2021/06/03 02:32:24;;;;;;;0.10;0.10;;;;;;;15.70;69.69;102027.44;10527907;28;20130;-62
2021/06/03 02:37:25;;;;;;;0.10;0.10;;;;;;;15.70;69.13;102022.06;10528376;28;20024;-62
2021/06/03 02:42:26;;;;;;;0.10;0.10;;;;;;;15.70;69.57;102022.06;10510885;28;20020;-62
2021/06/03 02:47:27;;;;;;;0.10;0.10;;;;;;;15.69;69.34;102025.75;10494236;28;20261;-62
2021/06/03 02:52:27;;;;;;;0.10;0.10;;;;;;;15.68;69.75;102032.16;10530625;28;20110;-62
2021/06/03 02:57:27;;;;;;;0.10;0.10;;;;;;;15.74;69.22;102030.66;10536926;28;20359;-62
2021/06/03 03:02:28;;;;;;;0.10;0.10;;;;;;;15.80;68.39;102028.16;10535709;28;20027;-62
2021/06/03 03:07:29;;;;;;;0.10;0.10;;;;;;;15.86;68.60;102033.88;10536263;28;20020;-62
2021/06/03 03:12:29;;;;;;;0.10;0.10;;;;;;;16.05;67.56;102031.69;10535202;28;20020;-62
2021/06/03 03:17:29;;;;;;;0.10;0.10;;;;;;;16.40;65.97;102029.72;10529414;28;20579;-62
2021/06/03 03:22:29;;;;;;;0.10;0.10;;;;;;;16.49;65.53;102033.25;10516695;28;20020;-62
2021/06/03 03:27:30;;;;;;;0.03;0.03;;;;;;;16.59;65.33;102039.28;10535561;28;20028;-62
2021/06/03 03:32:30;;;;;;;0.10;0.10;;;;;;;16.81;64.57;102031.56;10534897;28;20103;-62
2021/06/03 03:37:30;;;;;;;0.10;0.10;;;;;;;17.56;61.96;102041.91;10509358;28;20024;-62
2021/06/03 03:42:31;;;;;;;0.10;0.10;;;;;;;18.21;59.93;102029.91;10506530;28;20322;-62
2021/06/03 03:47:31;;;;;;;0.10;0.10;;;;;;;18.73;58.22;102032.72;10519719;28;20078;-62
2021/06/03 03:52:31;;;;;;;0.10;0.10;;;;;;;18.96;57.19;102029.09;10514266;28;20119;-62
2021/06/03 03:57:32;;;;;;;0.10;0.10;;;;;;;19.11;57.48;102029.09;10492966;28;20380;-63
2021/06/03 04:02:32;;;;;;;0.10;0.10;;;;;;;19.47;56.35;102031.88;10491932;28;20075;-62
2021/06/03 04:07:33;;;;;;;0.10;0.10;;;;;;;19.98;54.11;102028.31;10489666;28;20028;-63
2021/06/03 04:12:33;;;;;;;0.10;0.10;;;;;;;20.53;53.25;102034.91;10518687;28;20062;-63
2021/06/03 04:17:34;;;;;;;0.10;0.10;;;;;;;21.07;52.20;102030.72;10483808;28;20020;-63
2021/06/03 04:22:34;;;;;;;0.10;0.10;;;;;;;21.70;50.16;102026.84;10529872;28;20258;-63
2021/06/03 04:27:35;;;;;;;0.10;0.10;;;;;;;21.53;49.97;102024.72;10533912;28;20024;-63
2021/06/03 04:32:36;;;;;;;0.10;0.10;;;;;;;21.01;52.03;102026.91;10532944;28;20028;-63
2021/06/03 04:37:36;;;;;;;0.10;0.10;;;;;;;20.13;53.75;102038.06;10514919;28;20024;-63
2021/06/03 04:42:37;;;;;;;0.10;0.10;;;;;;;19.25;56.48;102049.88;10506350;28;20468;-63
2021/06/03 04:47:37;;;;;;;0.10;0.10;;;;;;;19.49;56.24;102046.03;10490861;28;20020;-63
2021/06/03 04:52:38;;;;;;;0.10;0.10;;;;;;;19.28;56.75;102049.50;10508992;28;20016;-63
2021/06/03 04:57:39;;;;;;;0.10;0.10;;;;;;;18.78;58.23;102046.47;10532640;28;20420;-63
2021/06/03 05:02:40;;;;;;;0.10;0.10;;;;;;;18.51;59.47;102053.28;10531854;28;20114;-63
2021/06/03 05:07:41;;;;;;;0.10;0.10;;;;;;;18.45;60.60;102059.41;10532451;28;20144;-63
2021/06/03 05:12:42;;;;;;;0.10;0.10;;;;;;;18.48;61.34;102055.53;10485483;28;20145;-62
2021/06/03 05:17:43;;;;;;;0.10;0.10;;;;;;;18.90;59.10;102060.38;10497392;28;20034;-62
2021/06/03 05:22:49;;;;;;;0.10;0.10;;;;;;;19.15;58.60;102060.13;10511901;28;20022;-63
2021/06/03 05:27:50;;;;;;;0.10;0.10;;;;;;;19.49;57.51;102061.41;10557508;22;20562;-66
2021/06/03 05:32:51;;;;;;;0.10;0.10;;;;;;;20.20;56.39;102053.53;10493248;28;20107;-66
2021/06/03 05:37:51;;;;;;;0.10;0.10;;;;;;;20.04;55.73;102063.56;10491629;28;20483;-65
2021/06/03 05:42:54;;;;;;;0.10;0.10;;;;;;;19.89;56.02;102068.16;10490945;28;20048;-66
2021/06/03 05:47:54;;;;;;;0.10;0.10;;;;;;;20.01;55.38;102082.03;10491823;28;20451;-65
2021/06/03 05:52:55;;;;;;;0.10;0.10;;;;;;;19.81;56.48;102079.94;10490656;28;20024;-65
2021/06/03 05:57:55;;;;;;;0.10;0.10;;;;;;;19.91;56.52;102082.34;10506951;28;20029;-65
2021/06/03 06:02:58;;;;;;;0.10;0.10;;;;;;;19.95;56.14;102090.91;10526690;28;20035;-65
2021/06/03 06:07:58;;;;;;;0.00;0.00;;;;;;;20.51;54.53;102094.63;10520259;28;20024;-65
2021/06/03 06:12:59;;;;;;;0.10;0.10;;;;;;;21.88;52.35;102096.78;10515018;28;20025;-66
2021/06/03 06:17:59;;;;;;;0.10;0.10;;;;;;;21.90;52.02;102089.28;10522029;28;20038;-66
2021/06/03 06:23:00;;;;;;;0.10;0.10;;;;;;;22.10;50.59;102096.63;10531348;28;20076;-66
2021/06/03 06:28:00;;;;;;;0.10;0.10;;;;;;;22.25;52.09;102096.50;10537822;28;20098;-65
2021/06/03 06:33:01;;;;;;;0.10;0.10;;;;;;;23.04;48.74;102087.56;10539973;28;20062;-66
2021/06/03 06:38:03;;;;;;;0.10;0.10;;;;;;;23.41;46.57;102088.72;10546020;28;20035;-65
2021/06/03 06:43:03;;;;;;;0.10;0.10;;;;;;;24.14;47.81;102093.00;10544671;28;20047;-66
2021/06/03 06:48:06;;;;;;;0.10;0.10;;;;;;;24.37;45.67;102095.16;10545536;28;20065;-66
2021/06/03 06:53:08;;;;;;;0.10;0.10;;;;;;;24.15;45.98;102109.16;10525962;28;20024;-66
2021/06/03 06:58:08;;;;;;;0.10;0.10;;;;;;;24.09;46.74;102114.63;10541044;28;20024;-65
2021/06/03 07:03:10;;;;;;;0.10;0.10;;;;;;;24.10;46.16;102111.69;10544562;28;20016;-67
2021/06/03 07:08:10;;;;;;;0.10;0.10;;;;;;;24.45;46.13;102113.16;10544889;28;20016;-68
2021/06/03 07:13:11;;;;;;;0.10;0.10;;;;;;;24.91;44.75;102106.50;10527012;28;20012;-67
2021/06/03 07:18:11;;;;;;;0.10;0.10;;;;;;;24.63;47.92;102096.88;10502904;28;20149;-67
2021/06/03 07:23:11;;;;;;;0.10;0.10;;;;;;;24.79;46.47;102095.50;10503054;28;20390;-66
2021/06/03 07:28:12;;;;;;;0.10;0.10;;;;;;;24.35;46.45;102100.03;10539559;28;20424;-67
2021/06/03 07:33:12;;;;;;;0.10;0.10;;;;;;;24.48;47.33;102096.38;10526431;28;20117;-65
2021/06/03 07:38:12;;;;;;;0.10;0.10;;;;;;;24.14;47.17;102090.28;10532634;28;20024;-66
2021/06/03 07:43:13;;;;;;;0.10;0.10;;;;;;;24.36;45.80;102093.50;10511896;28;20312;-65
2021/06/03 07:48:14;;;;;;;0.10;0.10;;;;;;;24.73;45.33;102080.88;10523991;28;20023;-66
2021/06/03 07:53:15;;;;;;;0.10;0.10;;;;;;;25.24;46.07;102085.22;10536695;28;20386;-65
2021/06/03 07:58:16;;;;;;;0.10;0.10;;;;;;;25.68;46.77;102077.75;10533020;28;20039;-66
2021/06/03 08:03:16;;;;;;;0.10;0.10;;;;;;;25.80;43.54;102075.09;10504506;28;20119;-66
2021/06/03 08:08:16;;;;;;;0.10;0.10;;;;;;;25.35;43.28;102088.25;10495353;28;20073;-66
2021/06/03 08:13:17;;;;;;;0.10;0.10;;;;;;;24.86;43.68;102101.72;10494599;28;20081;-67
2021/06/03 08:18:17;;;;;;;0.10;0.10;;;;;;;24.48;46.37;102115.44;10510342;28;20073;-66
2021/06/03 08:23:18;;;;;;;0.10;0.10;;;;;;;25.03;46.42;102112.91;10535918;28;20041;-66
2021/06/03 08:28:19;;;;;;;0.10;0.10;;;;;;;24.62;47.60;102123.31;10513968;28;20572;-66
2021/06/03 08:33:19;;;;;;;0.10;0.10;;;;;;;24.13;45.17;102132.19;10535625;28;20046;-67
2021/06/03 08:38:20;;;;;;;0.10;0.10;;;;;;;24.02;48.27;102138.31;10517291;28;20028;-65
2021/06/03 08:43:21;;;;;;;0.10;0.10;;;;;;;23.62;47.91;102136.56;10516285;28;20017;-68
2021/06/03 08:48:22;;;;;;;0.10;0.10;;;;;;;23.12;49.47;102152.56;10493394;28;20498;-67
2021/06/03 08:53:24;;;;;;;0.10;0.10;;;;;;;23.07;49.34;102159.66;10512224;28;20019;-66
2021/06/03 08:58:26;;;;;;;0.05;0.05;;;;;;;23.21;51.33;102158.59;10531495;28;20055;-66
2021/06/03 09:03:30;;;;;;;0.10;0.10;;;;;;;22.87;50.16;102165.91;10516197;28;20107;-66
2021/06/03 09:08:33;;;;;;;0.10;0.10;;;;;;;22.98;51.51;102157.19;10515982;28;20101;-67
2021/06/03 09:13:43;;;;;;;;;;;;;;;23.01;50.43;102170.34;10497311;28;20158;-67
2021/06/03 09:18:50;;;;;;;0.10;0.10;;;;;;;22.78;52.55;102184.31;10474238;28;19952;-65
2021/06/03 09:23:56;;;;;;;0.10;0.10;;;;;;;22.42;54.41;102184.66;10499290;28;20023;-65
2021/06/03 09:29:00;;;;;;;0.10;0.10;;;;;;;21.96;58.07;102190.69;10512496;28;20534;-66
2021/06/03 09:34:08;;;;;;;0.10;0.10;;;;;;;21.58;59.80;102185.69;10491112;28;20510;-66
2021/06/03 09:39:34;;;;;;;0.00;0.00;;;;;;;21.37;60.76;102186.63;10491491;28;20498;-66
2021/06/03 09:44:45;;;;;;;0.10;0.10;;;;;;;21.19;61.47;102183.53;10483426;28;20047;-66
2021/06/03 09:49:54;;;;;;;0.10;0.10;;;;;;;20.91;58.88;102175.38;10491228;28;20099;-66
2021/06/03 09:55:00;;;;;;;0.10;0.10;;;;;;;20.73;59.83;102195.63;10500458;28;20024;-65
2021/06/03 10:00:12;;;;;;;0.10;0.10;;;;;;;20.55;63.17;102203.38;10525643;28;20028;-66
2021/06/03 10:05:18;;;;;;;0.00;0.00;;;;;;;20.29;63.45;102204.69;10514860;28;20141;-65
2021/06/03 10:10:18;;;;;;;0.10;0.10;;;;;;;20.13;65.68;102196.81;10523722;28;20032;-67
2021/06/03 10:15:22;;;;;;;0.10;0.10;;;;;;;20.03;64.06;102205.22;10532723;28;20048;-67
2021/06/03 10:20:45;;;;;;;0.10;0.10;;;;;;;20.03;64.92;102198.97;10528665;28;20258;-66
2021/06/03 10:25:49;;;;;;;0.10;0.10;;;;;;;20.11;67.07;102212.41;10527600;28;20386;-66
2021/06/03 10:30:55;;;;;;;0.10;0.10;;;;;;;20.07;67.08;102217.34;10575279;28;20054;-66
2021/06/03 10:36:02;;;;;;;0.10;0.10;;;;;;;20.02;70.14;102230.59;10575586;28;20034;-66
2021/06/03 10:41:09;;;;;;;0.10;0.10;;;;;;;19.89;67.93;102216.88;10575225;28;20447;-67
2021/06/03 10:46:10;;;;;;;0.10;0.10;;;;;;;19.81;69.59;102244.88;10575290;28;20490;-67
2021/06/03 10:51:11;;;;;;;0.10;0.10;;;;;;;19.65;71.39;102264.78;10538276;28;20087;-66
2021/06/03 10:56:13;;;;;;;0.00;0.00;;;;;;;19.48;72.47;102265.94;10526279;28;20435;-67
2021/06/03 11:01:20;;;;;;;0.03;0.03;;;;;;;19.33;72.61;102273.16;10530769;28;20020;-67
2021/06/03 11:06:22;;;;;;;0.10;0.10;;;;;;;19.20;73.87;102277.34;10531140;28;20550;-67
2021/06/03 11:11:30;;;;;;;0.10;0.10;;;;;;;19.03;77.84;102258.75;10524890;28;20126;-66
2021/06/03 11:16:36;;;;;;;0.10;0.10;;;;;;;18.92;76.46;102238.38;10530793;28;20020;-65
2021/06/03 11:21:45;;;;;;;0.10;0.10;;;;;;;18.97;74.99;102227.91;10537135;28;20522;-67
2021/06/03 11:26:46;;;;;;;0.10;0.10;;;;;;;19.09;76.62;102217.50;10558385;22;20421;-64
2021/06/03 11:32:11;;;;;;;0.10;0.10;;;;;;;19.11;75.90;102227.09;10580853;28;20028;-65
2021/06/03 11:37:13;;;;;;;0.10;0.10;;;;;;;19.09;75.12;102223.75;10544379;28;20040;-64
2021/06/03 11:42:38;;;;;;;0.10;0.10;;;;;;;19.00;78.92;102217.56;10555527;28;20032;-64
2021/06/03 11:47:41;;;;;;;0.10;0.10;;;;;;;18.98;77.77;102210.66;10561134;28;20024;-65
2021/06/03 11:58:19;;;;;;;0.10;0.10;;;;;;;18.89;79.74;102207.19;10559193;28;20782;-65
2021/06/03 12:03:27;;;;;;;0.10;0.10;;;;;;;18.77;81.40;102195.97;10547845;28;20060;-64
2021/06/03 12:08:31;;;;;;;0.10;0.10;;;;;;;18.62;81.92;102207.69;10568160;28;20355;-63
2021/06/03 12:13:32;;;;;;;0.10;0.10;;;;;;;18.55;80.84;102221.88;10559454;28;20024;-64
2021/06/03 12:18:41;;;;;;;0.10;0.10;;;;;;;18.51;82.13;102208.94;10555282;28;20020;-65
2021/06/03 12:23:46;;;;;;;0.10;0.10;;;;;;;18.37;84.57;102217.78;10553915;28;20024;-65
2021/06/03 12:28:47;;;;;;;0.00;0.00;;;;;;;18.27;84.05;102242.28;10541207;28;20050;-65
2021/06/03 12:33:47;;;;;;;0.10;0.10;;;;;;;18.28;84.63;102247.50;10559538;28;20046;-64
2021/06/03 12:38:52;;;;;;;0.10;0.10;;;;;;;18.26;84.77;102257.59;10556197;28;20027;-66
2021/06/03 12:43:59;;;;;;;0.10;0.10;;;;;;;18.25;85.08;102268.59;10554194;28;20015;-65
2021/06/03 12:49:01;;;;;;;0.10;0.10;;;;;;;18.23;84.20;102268.75;10558992;28;20027;-65
2021/06/03 12:54:02;;;;;;;0.00;0.00;;;;;;;18.21;85.07;102254.63;10568318;28;20113;-66
2021/06/03 12:59:17;;;;;;;0.10;0.10;;;;;;;18.19;83.89;102232.38;10575506;28;20104;-66
2021/06/03 13:04:17;;;;;;;0.10;0.10;;;;;;;18.18;82.86;102210.97;10557071;27;20538;-65
2021/06/03 13:09:18;;;;;;;0.10;0.10;;;;;;;18.19;82.75;102199.16;10552530;27;20026;-65
2021/06/03 13:14:21;;;;;;;0.10;0.10;;;;;;;18.18;83.68;102178.59;10553183;28;20424;-64
2021/06/03 13:19:23;;;;;;;;;;;;;;;18.12;82.49;102173.91;10560915;28;20016;-65
2021/06/03 13:24:54;;;;;;;0.10;0.10;;;;;;;18.09;84.45;102162.47;10559726;28;19968;-65
2021/06/03 13:29:57;;;;;;;0.10;0.10;;;;;;;18.03;85.30;102149.69;10533172;28;20060;-65
2021/06/03 13:35:07;;;;;;;0.10;0.10;;;;;;;18.16;84.27;102149.13;10566051;28;20063;-65
2021/06/03 13:40:13;;;;;;;0.10;0.10;;;;;;;18.33;83.83;102148.00;10553206;28;20026;-65
2021/06/03 13:45:25;;;;;;;0.10;0.10;;;;;;;18.51;83.08;102130.69;10546786;28;20012;-65
2021/06/03 13:50:25;;;;;;;0.10;0.10;;;;;;;18.73;81.87;102112.78;10562774;27;20023;-65
2021/06/03 13:55:57;;;;;;;0.10;0.10;;;;;;;18.92;80.96;102120.44;10551164;28;20024;-66
2021/06/03 14:01:18;;;;;;;0.10;0.10;;;;;;;19.20;79.45;102122.53;10548989;28;20043;-64
2021/06/03 14:06:29;;;;;;;0.10;0.10;;;;;;;19.58;76.14;102130.56;10541623;27;20016;-64
2021/06/03 14:16:53;;;;;;;;;;;;;;;20.01;75.74;102130.69;10559843;28;20405;-64
2021/06/03 14:22:17;;;;;;;0.10;0.10;;;;;;;20.03;77.22;102128.66;10536484;28;20304;-64
2021/06/03 14:27:25;;;;;;;0.10;0.10;;;;;;;20.00;76.33;102140.69;10524686;28;20482;-64
2021/06/03 14:32:30;;;;;;;0.08;0.08;;;;;;;19.85;75.93;102161.50;10545609;28;20039;-64
2021/06/03 14:37:30;;;;;;;0.10;0.10;;;;;;;19.64;75.64;102160.38;10552937;28;20470;-64
2021/06/03 14:42:37;;;;;;;0.05;0.05;;;;;;;19.38;75.00;102176.22;10563460;28;20015;-64
2021/06/03 14:47:38;;;;;;;0.10;0.10;;;;;;;19.15;75.39;102173.56;10541085;28;20040;-63
2021/06/03 14:52:50;;;;;;;0.10;0.10;;;;;;;18.87;74.90;102192.19;10570011;27;20028;-64
2021/06/03 14:57:51;;;;;;;0.00;0.00;;;;;;;18.59;77.94;102199.94;10559875;28;20102;-65
2021/06/03 15:02:52;;;;;;;0.10;0.10;;;;;;;18.38;79.65;102198.72;10557945;28;20057;-65
2021/06/03 15:07:53;;;;;;;0.10;0.10;;;;;;;18.12;80.77;102196.31;10557290;28;20083;-64
2021/06/03 15:12:57;;;;;;;0.10;0.10;;;;;;;17.97;83.11;102195.38;10562362;28;20107;-64
2021/06/03 15:17:58;;;;;;;0.10;0.10;;;;;;;17.84;82.29;102187.84;10564925;28;20036;-64
2021/06/03 15:23:00;;;;;;;0.10;0.10;;;;;;;17.79;82.70;102192.91;10560578;27;20603;-67
2021/06/03 15:28:02;;;;;;;0.10;0.10;;;;;;;17.75;81.81;102194.25;10558800;28;20406;-63
2021/06/03 15:33:03;;;;;;;0.10;0.10;;;;;;;17.75;81.70;102180.78;10561893;28;20016;-65
2021/06/03 15:38:06;;;;;;;0.10;0.10;;;;;;;17.77;80.50;102176.03;10561599;28;20023;-63
2021/06/03 15:43:07;;;;;;;;;;;;;;;17.80;81.19;102178.41;10563910;28;20046;-64
2021/06/03 15:48:11;;;;;;;0.10;0.10;;;;;;;17.74;81.81;102192.56;10562566;28;20369;-64
2021/06/03 15:53:18;;;;;;;0.10;0.10;;;;;;;17.71;81.10;102182.97;10551131;28;20116;-65
2021/06/03 15:58:18;;;;;;;0.10;0.10;;;;;;;17.75;83.09;102186.19;10554119;28;20024;-63
2021/06/03 16:03:19;;;;;;;0.10;0.10;;;;;;;17.71;83.80;102177.56;10554399;28;20035;-64
2021/06/03 16:08:19;;;;;;;0.10;0.10;;;;;;;17.64;82.51;102182.81;10548972;28;20027;-63
2021/06/03 16:13:19;;;;;;;0.10;0.10;;;;;;;17.63;82.46;102183.84;10566180;28;20077;-63
2021/06/03 16:18:20;;;;;;;0.10;0.10;;;;;;;17.65;81.60;102165.63;10524297;28;20428;-63
2021/06/03 16:23:20;;;;;;;0.10;0.10;;;;;;;17.69;80.61;102147.28;10562613;27;20012;-64
2021/06/03 16:28:22;;;;;;;0.10;0.10;;;;;;;17.77;80.87;102136.50;10535044;28;20494;-63
2021/06/03 16:33:23;;;;;;;0.10;0.10;;;;;;;17.89;80.97;102120.81;10556324;28;20771;-63
2021/06/03 16:38:24;;;;;;;0.10;0.10;;;;;;;17.91;80.90;102136.78;10552920;28;20440;-68
2021/06/03 16:43:24;;;;;;;0.10;0.10;;;;;;;17.88;80.04;102146.06;10530044;28;20055;-66
2021/06/03 16:48:27;;;;;;;0.10;0.10;;;;;;;17.94;80.40;102179.56;10564200;28;20342;-65
2021/06/03 16:53:28;;;;;;;0.10;0.10;;;;;;;17.82;82.79;102239.22;10561702;28;20384;-74
2021/06/03 16:58:30;;;;;;;0.10;0.10;;;;;;;17.87;82.63;102271.91;10557059;28;20020;-65
2021/06/03 17:03:30;;;;;;;0.10;0.10;;;;;;;17.87;84.26;102298.84;10557524;28;20355;-64
2021/06/03 17:08:32;;;;;;;0.10;0.10;;;;;;;17.80;85.17;102324.81;10556368;28;20019;-63
2021/06/03 17:13:32;;;;;;;0.10;0.10;;;;;;;17.72;85.43;102342.81;10550487;28;20023;-64
2021/06/03 17:18:33;;;;;;;0.10;0.10;;;;;;;17.58;87.10;102352.41;10531323;28;20077;-67
2021/06/03 17:23:35;;;;;;;0.10;0.10;;;;;;;17.41;87.35;102354.25;10552025;27;20016;-65
2021/06/03 17:28:36;;;;;;;0.10;0.10;;;;;;;17.32;87.96;102360.66;10552551;28;20284;-65
2021/06/03 17:33:39;;;;;;;0.10;0.10;;;;;;;17.28;88.36;102340.44;10572197;28;20024;-64
2021/06/03 17:38:40;;;;;;;0.10;0.10;;;;;;;17.26;88.94;102337.09;10584580;22;20044;-64
2021/06/03 17:43:40;;;;;;;0.10;0.10;;;;;;;17.26;88.75;102331.69;10575747;27;20098;-63
2021/06/03 17:48:40;;;;;;;0.10;0.10;;;;;;;17.28;87.48;102327.81;10577079;28;20233;-63
2021/06/03 17:53:41;;;;;;;0.10;0.10;;;;;;;17.29;87.38;102321.41;10572814;28;20106;-63
2021/06/03 17:58:42;;;;;;;0.10;0.10;;;;;;;17.27;87.97;102311.81;10553563;28;20024;-63
2021/06/03 18:03:43;;;;;;;0.00;0.00;;;;;;;17.22;87.64;102314.16;10544387;28;20459;-65
2021/06/03 18:08:44;;;;;;;0.05;0.05;;;;;;;17.18;88.19;102322.56;10545345;28;20023;-64
2021/06/03 18:13:44;;;;;;;0.10;0.10;;;;;;;17.18;88.07;102313.66;10546660;28;20028;-64
2021/06/03 18:18:44;;;;;;;0.10;0.10;;;;;;;17.20;88.02;102317.03;10532242;28;20043;-63
2021/06/03 18:23:45;;;;;;;0.10;0.10;;;;;;;17.15;87.98;102317.53;10531568;28;20165;-63
2021/06/03 18:28:45;;;;;;;0.10;0.10;;;;;;;17.07;88.48;102289.75;10532424;28;20019;-64
2021/06/03 18:33:46;;;;;;;0.10;0.10;;;;;;;16.94;88.73;102264.19;10531110;28;20289;-65
2021/06/03 18:38:46;;;;;;;0.10;0.10;;;;;;;16.85;88.68;102257.09;10513790;28;20028;-65
2021/06/03 18:43:47;;;;;;;0.10;0.10;;;;;;;16.81;89.03;102241.44;10546509;28;20059;-65
2021/06/03 18:48:49;;;;;;;0.10;0.10;;;;;;;16.73;89.41;102226.09;10531504;28;20032;-64
2021/06/03 18:53:52;;;;;;;0.10;0.10;;;;;;;16.63;89.89;102215.47;10531152;28;20103;-64
2021/06/03 18:58:52;;;;;;;0.10;0.10;;;;;;;16.56;90.45;102201.03;10531311;28;20243;-64
2021/06/03 19:03:53;;;;;;;0.10;0.10;;;;;;;16.44;90.91;102196.97;10530906;28;20028;-64
2021/06/03 19:08:53;;;;;;;0.10;0.10;;;;;;;16.29;91.46;102194.06;10530655;28;20093;-63
2021/06/03 19:13:57;;;;;;;0.10;0.10;;;;;;;16.16;91.69;102197.19;10545165;28;20039;-64
2021/06/03 19:18:57;;;;;;;;;;;;;;;16.08;92.08;102191.78;10534639;28;20305;-65
2021/06/03 19:23:57;;;;;;;0.10;0.10;;;;;;;16.00;91.99;102189.09;10571954;28;20001;-65
2021/06/03 19:28:58;;;;;;;0.10;0.10;;;;;;;15.98;92.90;102193.78;10570515;28;20027;-65
2021/06/03 19:33:58;;;;;;;0.10;0.10;;;;;;;16.01;92.29;102196.16;10571412;28;20046;-65
2021/06/03 19:38:59;;;;;;;0.10;0.10;;;;;;;16.03;92.61;102208.41;10574271;27;20040;-65
2021/06/03 19:43:59;;;;;;;0.10;0.10;;;;;;;16.02;92.19;102220.16;10569556;28;20019;-63
2021/06/03 19:49:00;;;;;;;0.10;0.10;;;;;;;15.99;92.05;102233.91;10580230;28;20473;-65
2021/06/03 19:54:00;;;;;;;0.10;0.10;;;;;;;15.97;91.81;102238.63;10579417;28;20458;-64
2021/06/03 19:59:01;;;;;;;0.10;0.10;;;;;;;15.91;91.51;102238.41;10537124;28;20087;-65
2021/06/03 20:04:01;;;;;;;0.10;0.10;;;;;;;15.83;92.03;102258.03;10540241;28;20020;-65
2021/06/03 20:09:05;;;;;;;0.10;0.10;;;;;;;15.73;91.30;102268.03;10539050;28;20360;-65
2021/06/03 20:14:07;;;;;;;0.10;0.10;;;;;;;15.65;91.72;102278.69;10548355;28;20103;-64
2021/06/03 20:19:08;;;;;;;0.10;0.10;;;;;;;15.55;91.42;102276.09;10538163;28;20385;-65
2021/06/03 20:24:08;;;;;;;0.10;0.10;;;;;;;15.42;91.63;102270.28;10577838;28;20020;-64
2021/06/03 20:29:08;;;;;;;0.10;0.10;;;;;;;15.39;92.25;102269.63;10578603;28;20080;-65
2021/06/03 20:34:09;;;;;;;0.10;0.10;;;;;;;15.34;91.86;102263.84;10540835;28;20027;-65
2021/06/03 20:39:10;;;;;;;0.10;0.10;;;;;;;15.26;92.55;102260.25;10564744;28;20053;-65
2021/06/03 20:44:10;;;;;;;0.10;0.10;;;;;;;15.02;92.24;102252.84;10546136;28;20047;-65
2021/06/03 20:49:16;;;;;;;0.10;0.10;;;;;;;14.90;92.72;102268.34;10535520;28;20583;-65
2021/06/03 20:54:17;;;;;;;0.10;0.10;;;;;;;14.87;93.08;102269.47;10516774;28;20524;-65
2021/06/03 20:59:17;;;;;;;0.10;0.10;;;;;;;14.86;93.41;102272.28;10534372;28;20039;-65
2021/06/03 21:04:18;;;;;;;0.10;0.10;;;;;;;14.79;93.40;102264.03;10534339;28;20028;-65
2021/06/03 21:09:18;;;;;;;0.10;0.10;;;;;;;14.71;92.74;102278.19;10540132;27;20620;-65
2021/06/03 21:14:18;;;;;;;0.10;0.10;;;;;;;14.66;92.75;102280.50;10527543;28;20024;-65
2021/06/03 21:19:19;;;;;;;0.10;0.10;;;;;;;14.60;93.12;102291.81;10557713;28;20024;-65
2021/06/03 21:24:19;;;;;;;0.10;0.10;;;;;;;14.51;92.96;102284.63;10576494;28;20008;-65
2021/06/03 21:29:20;;;;;;;0.10;0.10;;;;;;;14.44;93.21;102283.53;10575885;28;20077;-65
2021/06/03 21:34:20;;;;;;;0.10;0.10;;;;;;;14.38;93.03;102286.81;10575748;28;20022;-65
2021/06/03 21:39:20;;;;;;;0.10;0.10;;;;;;;14.35;93.85;102293.31;10569351;28;20057;-65
2021/06/03 21:44:21;;;;;;;0.10;0.10;;;;;;;14.45;94.44;102287.91;10541526;28;20081;-65
2021/06/03 21:49:21;;;;;;;0.10;0.10;;;;;;;14.43;93.54;102282.69;10533619;28;20035;-65
2021/06/03 21:54:25;;;;;;;0.10;0.10;;;;;;;14.42;93.96;102283.69;10565027;28;20390;-65
2021/06/03 21:59:25;;;;;;;0.10;0.10;;;;;;;14.41;93.71;102289.19;10575134;28;20043;-65
2021/06/03 22:04:26;;;;;;;0.10;0.10;;;;;;;14.31;92.86;102291.94;10574690;28;20063;-65
2021/06/03 22:09:27;;;;;;;0.10;0.10;;;;;;;14.30;93.62;102287.56;10567495;28;20138;-65
2021/06/03 22:14:27;;;;;;;0.10;0.10;;;;;;;14.33;94.14;102289.09;10543217;28;20478;-65
2021/06/03 22:19:27;;;;;;;0.10;0.10;;;;;;;14.36;94.49;102286.13;10533398;28;20458;-65
2021/06/03 22:24:28;;;;;;;0.10;0.10;;;;;;;14.31;93.86;102281.22;10545246;28;20253;-65
2021/06/03 22:29:28;;;;;;;0.10;0.10;;;;;;;14.36;94.51;102280.75;10574167;28;20478;-65
2021/06/03 22:34:28;;;;;;;0.10;0.10;;;;;;;14.38;94.00;102268.06;10574073;28;20026;-65
2021/06/03 22:39:29;;;;;;;0.10;0.10;;;;;;;14.38;94.40;102271.56;10566613;28;20031;-65
2021/06/03 22:44:29;;;;;;;0.10;0.10;;;;;;;14.48;95.05;102268.84;10539969;28;20050;-65
2021/06/03 22:49:29;;;;;;;0.10;0.10;;;;;;;14.54;95.15;102262.06;10532015;28;20012;-65
2021/06/03 22:54:30;;;;;;;0.10;0.10;;;;;;;14.58;94.78;102258.94;10553527;28;20055;-65
2021/06/03 22:59:30;;;;;;;0.10;0.10;;;;;;;14.55;94.60;102261.09;10573616;28;20482;-65
2021/06/03 23:04:31;;;;;;;0.10;0.10;;;;;;;14.46;94.23;102252.91;10573552;28;20032;-65
2021/06/03 23:09:33;;;;;;;0.10;0.10;;;;;;;14.38;93.72;102250.13;10570769;28;20470;-64
2021/06/03 23:14:35;;;;;;;0.13;0.13;;;;;;;14.34;94.03;102259.47;10529219;28;20063;-65
2021/06/03 23:19:35;;;;;;;0.10;0.10;;;;;;;14.33;93.76;102265.81;10570702;28;20454;-66
2021/06/03 23:24:35;;;;;;;0.10;0.10;;;;;;;14.33;94.04;102268.50;10539127;28;20048;-65